Time;durP1;ratioP1;P1;durP2;ratioP2;P2;SDS_P1;SDS_P2;PMS_P1;PMS_P2;Temp;Humidity;BMP_temperature;BMP_pressure;BME280_temperature;BME280_humidity;BME280_pressure;Samples;Min_cycle;Max_cycle;Signal;HPM_P1;HPM_P2
2023/05/10 00:00:31;;;;;;;5.67;3.07;;;;;;;;;;5061674;28;20450;-69
2023/05/10 00:02:58;;;;;;;6.10;3.07;;;;;;;;;;5072308;28;20461;-68
2023/05/10 00:05:26;;;;;;;5.07;2.97;;;;;;;;;;5079234;28;20457;-68
2023/05/10 00:07:55;;;;;;;3.80;2.60;;;;;;;;;;5074319;28;20537;-68
2023/05/10 00:10:24;;;;;;;5.60;3.43;;;;;;;;;;5060216;28;20489;-67
2023/05/10 00:12:52;;;;;;;4.67;2.90;;;;;;;;;;5072588;28;20539;-69
2023/05/10 00:15:20;;;;;;;5.90;3.37;;;;;;;;;;5056642;28;20473;-70
2023/05/10 00:17:48;;;;;;;3.50;2.90;;;;;;;;;;5079531;28;20504;-67
2023/05/10 00:20:15;;;;;;;4.33;2.67;;;;;;;;;;5081623;28;20472;-70
2023/05/10 00:22:44;;;;;;;5.57;4.40;;;;;;;;;;5078508;28;20453;-68
2023/05/10 00:25:16;;;;;;;4.70;3.03;;;;;;;;;;5079789;28;20526;-69
2023/05/10 00:27:46;;;;;;;5.10;3.50;;;;;;;;;;5076606;28;20469;-69
2023/05/10 00:30:19;;;;;;;6.10;3.30;;;;;;;;;;5061131;28;20615;-68
2023/05/10 00:32:54;;;;;;;5.63;3.13;;;;;;;;;;5075222;28;20461;-68
2023/05/10 00:35:22;;;;;;;4.50;3.10;;;;;;;;;;5061851;28;20457;-69
2023/05/10 00:37:50;;;;;;;4.07;2.63;;;;;;;;;;5081418;28;20456;-68
2023/05/10 00:40:23;;;;;;;5.30;3.43;;;;;;;;;;5073279;28;20740;-68
2023/05/10 00:42:53;;;;;;;3.70;2.53;;;;;;;;;;5064484;28;20470;-69
2023/05/10 00:45:22;;;;;;;5.93;3.10;;;;;;;;;;5061169;28;20558;-68
2023/05/10 00:50:48;;;;;;;7.43;3.00;;;;;;;;;;5059413;28;20462;-68
2023/05/10 00:53:19;;;;;;;4.37;3.07;;;;;;;;;;5078090;28;20456;-68
2023/05/10 00:55:54;;;;;;;4.80;3.30;;;;;;;;;;5073625;28;20473;-68
2023/05/10 00:58:27;;;;;;;4.90;3.37;;;;;;;;;;5045635;28;20466;-69
2023/05/10 01:03:44;;;;;;;10.13;3.80;;;;;;;;;;5057189;28;20519;-70
2023/05/10 01:06:12;;;;;;;4.17;2.80;;;;;;;;;;5073224;28;20463;-69
2023/05/10 01:08:40;;;;;;;4.57;2.93;;;;;;;;;;5075408;28;20521;-70
2023/05/10 01:11:10;;;;;;;5.57;3.43;;;;;;;;;;5059192;28;20446;-69
2023/05/10 01:13:38;;;;;;;4.67;3.23;;;;;;;;;;5071843;28;20935;-69
2023/05/10 01:16:06;;;;;;;3.53;3.17;;;;;;;;;;5072382;28;20481;-69
2023/05/10 01:18:35;;;;;;;8.53;3.63;;;;;;;;;;5064955;28;20474;-69
2023/05/10 01:21:12;;;;;;;5.30;3.17;;;;;;;;;;5056057;28;20500;-69
2023/05/10 01:23:59;;;;;;;7.20;3.13;;;;;;;;;;5057410;28;20571;-69
2023/05/10 01:26:41;;;;;;;4.67;3.47;;;;;;;;;;5056890;28;20454;-70
2023/05/10 01:29:29;;;;;;;5.90;3.33;;;;;;;;;;5043819;28;20873;-69
2023/05/10 01:32:14;;;;;;;3.87;2.87;;;;;;;;;;5059091;28;20452;-70
2023/05/10 01:34:50;;;;;;;4.90;3.17;;;;;;;;;;5060605;28;20548;-67
2023/05/10 01:37:20;;;;;;;4.97;3.20;;;;;;;;;;5059539;28;20496;-70
2023/05/10 01:39:53;;;;;;;4.00;3.40;;;;;;;;;;5061338;28;20445;-68
2023/05/10 01:42:23;;;;;;;6.30;3.37;;;;;;;;;;5059893;28;20478;-70
2023/05/10 01:44:53;;;;;;;5.07;3.20;;;;;;;;;;5063180;28;20515;-69
2023/05/10 01:47:27;;;;;;;4.67;3.50;;;;;;;;;;5062990;28;20672;-69
2023/05/10 01:49:57;;;;;;;8.77;3.10;;;;;;;;;;5063812;28;20515;-69
2023/05/10 01:52:30;;;;;;;4.77;3.73;;;;;;;;;;5063200;28;20549;-70
2023/05/10 01:55:03;;;;;;;3.57;3.00;;;;;;;;;;5065257;28;20450;-68
2023/05/10 01:57:34;;;;;;;4.53;3.10;;;;;;;;;;5062243;28;20584;-70
2023/05/10 02:00:11;;;;;;;6.27;3.40;;;;;;;;;;5063114;28;20473;-69
2023/05/10 02:02:42;;;;;;;4.60;3.30;;;;;;;;;;5062567;28;20724;-70
2023/05/10 02:05:13;;;;;;;5.30;2.90;;;;;;;;;;5062190;28;20458;-69
2023/05/10 02:07:42;;;;;;;6.03;3.30;;;;;;;;;;5061584;28;20829;-70
2023/05/10 02:10:12;;;;;;;7.33;3.10;;;;;;;;;;5063132;28;20458;-70
2023/05/10 02:12:44;;;;;;;5.00;3.30;;;;;;;;;;5060155;28;20544;-69
2023/05/10 02:15:13;;;;;;;8.03;4.00;;;;;;;;;;5061497;28;20536;-69
2023/05/10 02:17:41;;;;;;;4.60;3.07;;;;;;;;;;5061729;28;20509;-68
2023/05/10 02:20:11;;;;;;;6.70;3.03;;;;;;;;;;5063787;28;20506;-69
2023/05/10 02:22:41;;;;;;;6.17;3.47;;;;;;;;;;5062034;28;20450;-69
2023/05/10 02:25:15;;;;;;;5.13;3.33;;;;;;;;;;5061580;28;20454;-70
2023/05/10 02:27:43;;;;;;;5.13;2.90;;;;;;;;;;5061494;28;20457;-70
2023/05/10 02:30:13;;;;;;;6.67;3.40;;;;;;;;;;5062167;28;20465;-69
2023/05/10 02:32:41;;;;;;;5.00;2.87;;;;;;;;;;5063121;28;20539;-68
2023/05/10 02:35:10;;;;;;;5.60;3.67;;;;;;;;;;5063431;28;20574;-70
2023/05/10 02:37:38;;;;;;;4.77;3.50;;;;;;;;;;5063722;28;20486;-70
2023/05/10 02:40:13;;;;;;;5.53;3.93;;;;;;;;;;5061949;28;20465;-70
2023/05/10 02:42:43;;;;;;;3.93;2.97;;;;;;;;;;5061680;28;20881;-70
2023/05/10 02:45:14;;;;;;;4.43;3.30;;;;;;;;;;5061300;28;20996;-69
2023/05/10 02:47:42;;;;;;;7.13;3.63;;;;;;;;;;5062490;28;20545;-70
2023/05/10 02:50:11;;;;;;;3.87;3.17;;;;;;;;;;5062638;28;20530;-69
2023/05/10 02:52:41;;;;;;;5.43;3.30;;;;;;;;;;5061765;28;20858;-70
2023/05/10 02:55:13;;;;;;;4.90;3.53;;;;;;;;;;5061131;28;20853;-69
2023/05/10 02:57:43;;;;;;;4.73;2.70;;;;;;;;;;5060858;28;20495;-68
2023/05/10 03:00:11;;;;;;;10.87;4.50;;;;;;;;;;5062392;28;20857;-70
2023/05/10 03:02:38;;;;;;;5.97;3.70;;;;;;;;;;5062016;28;20468;-70
2023/05/10 03:05:06;;;;;;;5.63;3.90;;;;;;;;;;5061037;28;20458;-71
2023/05/10 03:07:35;;;;;;;6.70;3.30;;;;;;;;;;5060927;28;20450;-70
2023/05/10 03:10:09;;;;;;;6.07;3.43;;;;;;;;;;5061479;28;20450;-70
2023/05/10 03:12:51;;;;;;;4.77;3.37;;;;;;;;;;5061124;28;20481;-70
2023/05/10 03:15:21;;;;;;;4.40;3.60;;;;;;;;;;5044750;28;20547;-70
2023/05/10 03:17:50;;;;;;;5.63;3.57;;;;;;;;;;5060524;28;20570;-69
2023/05/10 03:20:21;;;;;;;5.20;3.27;;;;;;;;;;5070328;28;20531;-70
2023/05/10 03:22:51;;;;;;;6.03;4.10;;;;;;;;;;5065365;28;20552;-70
2023/05/10 03:25:20;;;;;;;4.83;3.40;;;;;;;;;;5074739;28;20465;-69
2023/05/10 03:27:49;;;;;;;7.10;3.70;;;;;;;;;;5080352;28;20461;-70
2023/05/10 03:30:18;;;;;;;5.03;3.37;;;;;;;;;;5039669;28;20451;-69
2023/05/10 03:32:45;;;;;;;6.73;3.70;;;;;;;;;;5059404;28;20465;-70
2023/05/10 03:35:14;;;;;;;5.53;3.50;;;;;;;;;;5060730;28;20449;-70
2023/05/10 03:37:41;;;;;;;6.20;4.30;;;;;;;;;;5076212;28;20484;-70
2023/05/10 03:40:11;;;;;;;5.13;3.50;;;;;;;;;;5061550;28;20473;-68
2023/05/10 03:42:38;;;;;;;5.40;3.23;;;;;;;;;;5061346;28;20540;-68
2023/05/10 03:45:08;;;;;;;7.00;4.07;;;;;;;;;;5069958;28;20450;-69
2023/05/10 03:47:38;;;;;;;4.43;3.53;;;;;;;;;;5059363;28;20685;-69
2023/05/10 03:50:12;;;;;;;6.83;3.53;;;;;;;;;;5064090;28;20469;-70
2023/05/10 03:52:40;;;;;;;4.83;3.60;;;;;;;;;;5063729;28;20453;-70
2023/05/10 03:55:08;;;;;;;6.30;3.90;;;;;;;;;;5078217;28;20453;-69
2023/05/10 03:57:37;;;;;;;4.90;3.70;;;;;;;;;;5073049;28;20489;-71
2023/05/10 04:00:13;;;;;;;5.83;3.47;;;;;;;;;;5057487;28;20458;-70
2023/05/10 04:02:40;;;;;;;6.37;3.80;;;;;;;;;;5059469;28;20485;-70
2023/05/10 04:05:08;;;;;;;5.40;3.87;;;;;;;;;;5075835;28;20977;-68
2023/05/10 04:07:35;;;;;;;4.50;3.60;;;;;;;;;;5056673;28;20807;-69
2023/05/10 04:10:11;;;;;;;4.80;3.50;;;;;;;;;;5067905;28;20480;-70
2023/05/10 04:12:39;;;;;;;7.07;3.50;;;;;;;;;;5077843;28;20526;-70
2023/05/10 04:15:07;;;;;;;4.30;3.27;;;;;;;;;;5078992;28;20457;-70
2023/05/10 04:17:37;;;;;;;4.13;2.97;;;;;;;;;;5078882;28;20485;-70
2023/05/10 04:20:08;;;;;;;5.57;3.50;;;;;;;;;;5078231;28;20477;-69
2023/05/10 04:22:35;;;;;;;9.20;3.43;;;;;;;;;;5076526;28;20465;-68
2023/05/10 04:25:03;;;;;;;4.83;2.73;;;;;;;;;;5076218;28;20491;-70
2023/05/10 04:27:32;;;;;;;5.47;2.80;;;;;;;;;;5075225;28;20507;-69
2023/05/10 04:30:00;;;;;;;5.17;3.40;;;;;;;;;;5074862;28;20457;-71
2023/05/10 04:32:29;;;;;;;6.73;3.50;;;;;;;;;;5075147;28;20437;-69
2023/05/10 04:34:59;;;;;;;5.77;3.33;;;;;;;;;;5073517;28;20464;-70
2023/05/10 04:37:26;;;;;;;7.17;3.40;;;;;;;;;;5058794;28;20936;-69
2023/05/10 04:39:54;;;;;;;4.93;3.97;;;;;;;;;;5058958;28;20484;-69
2023/05/10 04:42:22;;;;;;;6.20;4.23;;;;;;;;;;5076891;28;20459;-70
2023/05/10 04:44:51;;;;;;;4.50;3.27;;;;;;;;;;5059540;28;20524;-69
2023/05/10 04:47:23;;;;;;;7.10;3.57;;;;;;;;;;5059308;28;20830;-69
2023/05/10 04:49:52;;;;;;;8.73;3.73;;;;;;;;;;5042944;28;20847;-69
2023/05/10 04:52:22;;;;;;;4.33;3.00;;;;;;;;;;5040607;28;20735;-69
2023/05/10 04:54:50;;;;;;;5.57;3.50;;;;;;;;;;5050121;28;20523;-70
2023/05/10 04:57:24;;;;;;;5.90;3.60;;;;;;;;;;5062425;28;20579;-71
2023/05/10 04:59:56;;;;;;;6.07;3.63;;;;;;;;;;5055785;28;20806;-69
2023/05/10 05:02:24;;;;;;;8.30;3.73;;;;;;;;;;5048032;28;20467;-69
2023/05/10 05:04:54;;;;;;;4.10;3.27;;;;;;;;;;5035049;28;20459;-69
2023/05/10 05:07:25;;;;;;;5.73;3.37;;;;;;;;;;5039765;28;20966;-70
2023/05/10 05:09:53;;;;;;;4.33;2.70;;;;;;;;;;5054321;28;20913;-70
2023/05/10 05:12:24;;;;;;;7.80;3.80;;;;;;;;;;5068725;28;20546;-70
2023/05/10 05:14:57;;;;;;;6.27;4.13;;;;;;;;;;5064419;28;20446;-70
2023/05/10 05:17:25;;;;;;;4.93;3.40;;;;;;;;;;5049809;28;20553;-70
2023/05/10 05:19:59;;;;;;;4.23;3.60;;;;;;;;;;5040055;28;21099;-69
2023/05/10 05:22:34;;;;;;;6.73;3.70;;;;;;;;;;5031216;28;20551;-69
2023/05/10 05:25:07;;;;;;;4.40;3.47;;;;;;;;;;5037340;28;20972;-70
2023/05/10 05:27:36;;;;;;;4.57;3.13;;;;;;;;;;5030740;28;20891;-68
2023/05/10 05:30:13;;;;;;;5.20;3.63;;;;;;;;;;5032012;28;20459;-68
2023/05/10 05:32:46;;;;;;;6.20;4.40;;;;;;;;;;5031219;28;20846;-68
2023/05/10 05:35:15;;;;;;;5.43;3.87;;;;;;;;;;5032767;28;20453;-68
2023/05/10 05:37:44;;;;;;;5.43;3.73;;;;;;;;;;5048244;28;20569;-68
2023/05/10 05:40:15;;;;;;;7.47;3.50;;;;;;;;;;5038120;28;20561;-70
2023/05/10 05:42:42;;;;;;;4.77;3.53;;;;;;;;;;5032235;28;20458;-70
2023/05/10 05:45:12;;;;;;;7.13;3.60;;;;;;;;;;5030953;28;20477;-69
2023/05/10 05:47:40;;;;;;;9.13;4.57;;;;;;;;;;5030174;28;20489;-69
2023/05/10 05:50:09;;;;;;;5.83;4.17;;;;;;;;;;5036465;28;20961;-69
2023/05/10 05:52:37;;;;;;;7.30;3.70;;;;;;;;;;5028810;28;20466;-70
2023/05/10 05:55:07;;;;;;;7.60;4.30;;;;;;;;;;5029687;28;20447;-69
2023/05/10 05:57:34;;;;;;;5.80;4.03;;;;;;;;;;5044745;28;21172;-69
2023/05/10 06:00:17;;;;;;;6.23;2.47;;;;;;;;;;5050753;28;20915;-70
2023/05/10 06:02:44;;;;;;;4.70;3.50;;;;;;;;;;5050648;28;20466;-69
2023/05/10 06:05:15;;;;;;;5.93;3.83;;;;;;;;;;5050817;28;20470;-70
2023/05/10 06:07:43;;;;;;;7.20;3.53;;;;;;;;;;5042759;28;20458;-70
2023/05/10 06:10:12;;;;;;;4.90;3.67;;;;;;;;;;5034295;28;20447;-70
2023/05/10 06:12:40;;;;;;;5.47;3.60;;;;;;;;;;5031925;28;20447;-70
2023/05/10 06:15:09;;;;;;;5.90;3.53;;;;;;;;;;5032356;28;20469;-70
2023/05/10 06:17:38;;;;;;;7.60;3.70;;;;;;;;;;5034092;28;20490;-69
2023/05/10 06:20:11;;;;;;;6.47;3.83;;;;;;;;;;5040276;28;20535;-69
2023/05/10 06:22:38;;;;;;;3.80;3.20;;;;;;;;;;5052255;28;20454;-71
2023/05/10 06:25:09;;;;;;;4.30;3.23;;;;;;;;;;5035722;28;20524;-69
2023/05/10 06:27:40;;;;;;;4.40;3.23;;;;;;;;;;5042784;28;20465;-68
2023/05/10 06:30:10;;;;;;;3.83;3.13;;;;;;;;;;5046035;28;20454;-68
2023/05/10 06:32:43;;;;;;;7.77;3.37;;;;;;;;;;5033777;28;20478;-69
2023/05/10 06:35:19;;;;;;;5.13;3.63;;;;;;;;;;5033344;28;20924;-70
2023/05/10 06:37:50;;;;;;;4.93;3.63;;;;;;;;;;5040888;28;20486;-69
2023/05/10 06:40:30;;;;;;;6.83;4.00;;;;;;;;;;5050877;28;20466;-70
2023/05/10 06:43:17;;;;;;;6.57;3.57;;;;;;;;;;5055281;28;20452;-69
2023/05/10 06:46:01;;;;;;;5.17;3.60;;;;;;;;;;5057200;28;20445;-69
2023/05/10 06:48:37;;;;;;;5.50;4.23;;;;;;;;;;5057938;28;20438;-69
2023/05/10 06:51:12;;;;;;;5.50;3.63;;;;;;;;;;5061388;28;20477;-69
2023/05/10 06:53:58;;;;;;;5.33;3.40;;;;;;;;;;5059412;28;20735;-70
2023/05/10 06:56:39;;;;;;;4.53;3.30;;;;;;;;;;5059822;28;20512;-70
2023/05/10 06:59:25;;;;;;;4.80;3.43;;;;;;;;;;5058155;28;20486;-71
2023/05/10 07:02:11;;;;;;;5.70;3.80;;;;;;;;;;5059707;28;20508;-69
2023/05/10 07:04:39;;;;;;;7.60;3.70;;;;;;;;;;5053554;28;20473;-68
2023/05/10 07:07:23;;;;;;;5.53;3.77;;;;;;;;;;5057252;28;20563;-70
2023/05/10 07:09:58;;;;;;;4.30;3.20;;;;;;;;;;5034763;28;20450;-69
2023/05/10 07:12:36;;;;;;;5.63;2.77;;;;;;;;;;5036863;28;20877;-69
2023/05/10 07:15:17;;;;;;;6.33;3.20;;;;;;;;;;5036258;28;21048;-69
2023/05/10 07:17:46;;;;;;;3.87;3.30;;;;;;;;;;5036473;28;20478;-69
2023/05/10 07:20:17;;;;;;;10.20;3.50;;;;;;;;;;5038242;28;20447;-71
2023/05/10 07:25:43;;;;;;;4.50;3.10;;;;;;;;;;5045526;28;20428;-69
2023/05/10 07:28:23;;;;;;;4.90;3.30;;;;;;;;;;5056886;28;20807;-70
2023/05/10 07:31:15;;;;;;;3.83;3.33;;;;;;;;;;5052286;28;20473;-70
2023/05/10 07:34:18;;;;;;;4.50;3.00;;;;;;;;;;5058165;28;20446;-71
2023/05/10 07:36:58;;;;;;;8.67;3.77;;;;;;;;;;5057952;28;20737;-69
2023/05/10 07:39:29;;;;;;;6.67;3.80;;;;;;;;;;5048437;28;20489;-69
2023/05/10 07:42:13;;;;;;;97.17;57.13;;;;;;;;;;5048658;28;21051;-70
2023/05/10 07:44:54;;;;;;;6.87;4.00;;;;;;;;;;5051767;28;20509;-68
2023/05/10 07:47:36;;;;;;;6.37;4.10;;;;;;;;;;5052712;28;20462;-68
2023/05/10 07:50:10;;;;;;;6.37;3.80;;;;;;;;;;5036832;28;20499;-70
2023/05/10 07:55:29;;;;;;;4.27;3.10;;;;;;;;;;5040663;28;20454;-69
2023/05/10 07:58:01;;;;;;;8.30;3.70;;;;;;;;;;5034826;28;20482;-68
2023/05/10 08:00:46;;;;;;;5.17;3.20;;;;;;;;;;5046687;28;20568;-69
2023/05/10 08:06:55;;;;;;;4.00;3.30;;;;;;;;;;4999087;28;20345;-68
2023/05/10 08:09:32;;;;;;;4.97;3.77;;;;;;;;;;5062206;28;20464;-70
2023/05/10 08:17:30;;;;;;;5.23;4.30;;;;;;;;;;5094895;28;20452;-71
2023/05/10 08:20:18;;;;;;;4.87;3.70;;;;;;;;;;5098968;28;20479;-69
2023/05/10 08:22:48;;;;;;;6.10;4.00;;;;;;;;;;5084444;28;20502;-69
2023/05/10 08:25:32;;;;;;;4.47;3.40;;;;;;;;;;5110214;28;20541;-69
2023/05/10 08:28:09;;;;;;;5.77;5.00;;;;;;;;;;5112720;28;20548;-68
2023/05/10 08:30:57;;;;;;;5.40;3.87;;;;;;;;;;5115348;28;20561;-70
2023/05/10 08:33:36;;;;;;;7.30;4.30;;;;;;;;;;5112327;28;20457;-70
2023/05/10 08:36:13;;;;;;;11.57;4.90;;;;;;;;;;5114312;28;20465;-69
2023/05/10 08:39:08;;;;;;;6.10;4.10;;;;;;;;;;5108991;28;20474;-70
2023/05/10 08:41:47;;;;;;;5.43;3.83;;;;;;;;;;5122645;27;20454;-69
2023/05/10 08:44:15;;;;;;;6.83;4.50;;;;;;;;;;5115357;28;20517;-69
2023/05/10 08:46:48;;;;;;;6.77;4.83;;;;;;;;;;5112736;28;20915;-69
2023/05/10 08:49:20;;;;;;;10.43;6.00;;;;;;;;;;5112678;28;20896;-68
2023/05/10 08:51:52;;;;;;;6.57;4.40;;;;;;;;;;5107750;28;20597;-69
2023/05/10 08:54:45;;;;;;;6.43;4.60;;;;;;;;;;5120648;27;20453;-68
2023/05/10 08:57:14;;;;;;;13.30;4.60;;;;;;;;;;5132744;27;20454;-69
2023/05/10 08:59:42;;;;;;;5.30;4.07;;;;;;;;;;5134837;27;20490;-68
2023/05/10 09:02:13;;;;;;;10.73;4.70;;;;;;;;;;5134577;27;20594;-68
2023/05/10 09:04:49;;;;;;;6.50;4.30;;;;;;;;;;5113842;27;20475;-67
2023/05/10 09:07:23;;;;;;;12.23;5.27;;;;;;;;;;5114338;27;20465;-69
2023/05/10 09:09:50;;;;;;;7.63;4.90;;;;;;;;;;5110391;28;20463;-69
2023/05/10 09:12:28;;;;;;;7.37;4.37;;;;;;;;;;5113547;28;21005;-70
2023/05/10 09:15:10;;;;;;;8.03;4.60;;;;;;;;;;5093496;28;20459;-70
2023/05/10 09:17:44;;;;;;;7.60;5.03;;;;;;;;;;5094483;28;20451;-69
2023/05/10 09:20:17;;;;;;;6.40;3.83;;;;;;;;;;5121807;27;20493;-70
2023/05/10 09:23:05;;;;;;;6.20;3.50;;;;;;;;;;5108596;28;20458;-70
2023/05/10 09:28:56;;;;;;;7.67;4.90;;;;;;;;;;5108042;28;20451;-69
2023/05/10 09:32:03;;;;;;;8.07;3.90;;;;;;;;;;5106639;28;20520;-71
2023/05/10 09:34:43;;;;;;;7.17;4.53;;;;;;;;;;5110512;28;20467;-69
2023/05/10 09:37:16;;;;;;;5.77;4.60;;;;;;;;;;5105921;28;20474;-71
2023/05/10 09:39:50;;;;;;;5.87;4.63;;;;;;;;;;5111458;28;20487;-70
2023/05/10 09:42:23;;;;;;;8.87;5.37;;;;;;;;;;5111318;28;20451;-69
2023/05/10 09:44:55;;;;;;;9.10;5.10;;;;;;;;;;5110765;28;20532;-70
2023/05/10 09:47:24;;;;;;;7.57;4.87;;;;;;;;;;5108128;28;20451;-69
2023/05/10 09:53:15;;;;;;;10.93;4.77;;;;;;;;;;5059240;28;20443;-69
2023/05/10 09:55:44;;;;;;;10.37;5.03;;;;;;;;;;5109809;28;20500;-70
2023/05/10 09:58:14;;;;;;;5.57;4.97;;;;;;;;;;5111322;28;20450;-68
2023/05/10 10:00:47;;;;;;;5.53;5.03;;;;;;;;;;5112233;28;20516;-70
2023/05/10 10:03:18;;;;;;;8.30;4.67;;;;;;;;;;5102577;28;20554;-71
2023/05/10 10:05:47;;;;;;;5.60;4.30;;;;;;;;;;5104253;28;20452;-69
2023/05/10 10:08:15;;;;;;;5.63;5.03;;;;;;;;;;5096945;28;20470;-69
2023/05/10 10:10:50;;;;;;;7.40;5.30;;;;;;;;;;5096707;28;20436;-70
2023/05/10 10:13:19;;;;;;;6.00;4.60;;;;;;;;;;5097060;28;20463;-70
2023/05/10 10:19:23;;;;;;;7.67;4.17;;;;;;;;;;5096229;28;20490;-70
2023/05/10 10:21:57;;;;;;;7.07;5.13;;;;;;;;;;5095564;28;20459;-70
2023/05/10 10:24:28;;;;;;;6.63;4.47;;;;;;;;;;5095633;28;20460;-70
2023/05/10 10:27:10;;;;;;;7.40;5.37;;;;;;;;;;5114344;28;20466;-70
2023/05/10 10:32:41;;;;;;;7.57;5.20;;;;;;;;;;5112482;28;20482;-69
2023/05/10 10:35:17;;;;;;;10.00;5.77;;;;;;;;;;5091022;28;20494;-70
2023/05/10 10:37:53;;;;;;;7.40;5.10;;;;;;;;;;5105984;27;20882;-70
2023/05/10 10:40:29;;;;;;;8.23;5.50;;;;;;;;;;5116967;27;20562;-71
2023/05/10 10:43:00;;;;;;;7.47;5.80;;;;;;;;;;5102229;27;20466;-72
2023/05/10 10:45:31;;;;;;;6.10;5.33;;;;;;;;;;5116673;28;20541;-70
2023/05/10 10:48:17;;;;;;;7.73;6.80;;;;;;;;;;5116364;28;20483;-69
2023/05/10 10:51:00;;;;;;;9.00;6.40;;;;;;;;;;5119405;28;20450;-70
2023/05/10 10:53:33;;;;;;;8.87;6.27;;;;;;;;;;5112430;28;21121;-70
2023/05/10 10:56:09;;;;;;;9.40;5.43;;;;;;;;;;5114430;28;20455;-69
2023/05/10 10:58:55;;;;;;;9.93;6.83;;;;;;;;;;5108325;28;20513;-74
2023/05/10 11:01:36;;;;;;;13.17;8.63;;;;;;;;;;5117037;28;20798;-71
2023/05/10 11:04:43;;;;;;;8.23;6.60;;;;;;;;;;5113803;28;20449;-70
2023/05/10 11:07:29;;;;;;;8.40;7.33;;;;;;;;;;5115041;28;20443;-70
2023/05/10 11:10:07;;;;;;;10.40;7.30;;;;;;;;;;5119817;28;20439;-68
2023/05/10 11:12:35;;;;;;;8.33;6.63;;;;;;;;;;5117293;28;20722;-70
2023/05/10 11:15:03;;;;;;;11.10;8.00;;;;;;;;;;5084836;28;20460;-70
2023/05/10 11:17:32;;;;;;;7.57;6.77;;;;;;;;;;5096524;28;20529;-70
2023/05/10 11:20:10;;;;;;;13.97;10.43;;;;;;;;;;5097776;28;20486;-70
2023/05/10 11:22:59;;;;;;;14.10;9.70;;;;;;;;;;5095916;28;20729;-69
2023/05/10 11:25:53;;;;;;;12.13;10.13;;;;;;;;;;5095760;28;20452;-72
2023/05/10 11:28:32;;;;;;;8.33;7.37;;;;;;;;;;5092210;28;20448;-69
2023/05/10 11:31:00;;;;;;;9.90;7.57;;;;;;;;;;5110389;28;20446;-71
2023/05/10 11:33:28;;;;;;;15.50;10.70;;;;;;;;;;5116696;28;20851;-71
2023/05/10 11:36:09;;;;;;;19.93;10.10;;;;;;;;;;5116255;28;20818;-70
2023/05/10 11:38:37;;;;;;;12.70;8.97;;;;;;;;;;5114445;28;20486;-72
2023/05/10 11:44:11;;;;;;;7.73;6.93;;;;;;;;;;5115109;28;20524;-70
2023/05/10 11:46:41;;;;;;;10.27;8.30;;;;;;;;;;5110505;27;20458;-69
2023/05/10 11:49:23;;;;;;;10.00;8.10;;;;;;;;;;5107039;27;20456;-70
2023/05/10 11:51:59;;;;;;;10.60;8.90;;;;;;;;;;5104451;28;20455;-71
2023/05/10 11:54:49;;;;;;;13.53;9.27;;;;;;;;;;5116712;28;20447;-68
2023/05/10 11:57:17;;;;;;;13.43;8.40;;;;;;;;;;5117845;28;20453;-69
2023/05/10 11:59:47;;;;;;;10.33;7.60;;;;;;;;;;5115093;28;20495;-70
2023/05/10 12:02:15;;;;;;;12.20;8.07;;;;;;;;;;5108299;28;20456;-68
2023/05/10 12:04:57;;;;;;;11.00;8.30;;;;;;;;;;5106315;28;20915;-70
2023/05/10 12:07:39;;;;;;;10.80;8.50;;;;;;;;;;5110117;28;20458;-70
2023/05/10 12:12:58;;;;;;;17.00;11.50;;;;;;;;;;5111028;28;20504;-69
2023/05/10 12:15:28;;;;;;;15.70;12.40;;;;;;;;;;5106967;28;20597;-68
2023/05/10 12:18:05;;;;;;;11.63;9.50;;;;;;;;;;5120517;27;20454;-69
2023/05/10 12:20:38;;;;;;;9.47;8.07;;;;;;;;;;5134166;27;20478;-70
2023/05/10 12:23:07;;;;;;;12.13;8.33;;;;;;;;;;5116607;27;20484;-68
2023/05/10 12:25:46;;;;;;;10.10;8.47;;;;;;;;;;5088087;28;20467;-69
2023/05/10 12:28:14;;;;;;;8.63;7.73;;;;;;;;;;5118256;28;20524;-69
2023/05/10 12:30:59;;;;;;;10.10;7.83;;;;;;;;;;5120902;28;20451;-70
2023/05/10 12:33:54;;;;;;;8.47;7.30;;;;;;;;;;5095209;28;20485;-70
2023/05/10 12:36:25;;;;;;;8.70;7.80;;;;;;;;;;5119433;27;20916;-69
2023/05/10 12:38:54;;;;;;;8.90;7.97;;;;;;;;;;5134442;27;20488;-69
2023/05/10 12:41:22;;;;;;;10.30;8.03;;;;;;;;;;5127280;27;20491;-70
2023/05/10 12:43:53;;;;;;;8.50;7.60;;;;;;;;;;5110184;28;20718;-70
2023/05/10 12:46:32;;;;;;;10.33;9.23;;;;;;;;;;5109512;28;20532;-72
2023/05/10 12:49:16;;;;;;;10.53;8.13;;;;;;;;;;5126118;27;20466;-70
2023/05/10 12:51:46;;;;;;;13.37;8.43;;;;;;;;;;5114427;28;21033;-70
2023/05/10 12:54:14;;;;;;;9.80;7.60;;;;;;;;;;5129258;27;20466;-69
2023/05/10 12:56:43;;;;;;;12.57;9.37;;;;;;;;;;5134667;27;20450;-70
2023/05/10 12:59:10;;;;;;;10.93;8.63;;;;;;;;;;5128082;27;20450;-69
2023/05/10 13:01:50;;;;;;;11.60;9.07;;;;;;;;;;5114849;27;20873;-70
2023/05/10 13:07:13;;;;;;;9.83;8.33;;;;;;;;;;5114908;28;20463;-69
2023/05/10 13:09:43;;;;;;;13.93;10.43;;;;;;;;;;5108500;28;20901;-70
2023/05/10 13:12:16;;;;;;;10.07;8.73;;;;;;;;;;5117280;28;20830;-68
2023/05/10 13:14:48;;;;;;;8.30;6.93;;;;;;;;;;5113857;28;20471;-68
2023/05/10 13:17:18;;;;;;;9.30;8.30;;;;;;;;;;5114027;27;20489;-69
2023/05/10 13:19:48;;;;;;;11.13;8.50;;;;;;;;;;5133920;27;20478;-69
2023/05/10 13:22:17;;;;;;;11.10;9.70;;;;;;;;;;5137380;27;20457;-69
2023/05/10 13:24:48;;;;;;;10.60;8.00;;;;;;;;;;5112145;28;20864;-71
2023/05/10 13:27:16;;;;;;;13.50;9.40;;;;;;;;;;5097892;28;20533;-69
2023/05/10 13:29:45;;;;;;;7.90;6.77;;;;;;;;;;5125099;27;20463;-69
2023/05/10 13:32:26;;;;;;;6.73;5.77;;;;;;;;;;5115095;28;20518;-70
2023/05/10 13:35:04;;;;;;;9.97;6.87;;;;;;;;;;5094724;28;20889;-70
2023/05/10 13:37:37;;;;;;;9.10;5.80;;;;;;;;;;5098015;28;20458;-69
2023/05/10 13:40:08;;;;;;;7.83;5.67;;;;;;;;;;5101644;28;20565;-69
2023/05/10 13:42:40;;;;;;;8.43;7.53;;;;;;;;;;5110060;28;20447;-69
2023/05/10 13:45:13;;;;;;;7.37;6.50;;;;;;;;;;5118999;28;20820;-70
2023/05/10 13:47:42;;;;;;;8.43;6.70;;;;;;;;;;5120920;28;20461;-67
2023/05/10 13:50:17;;;;;;;7.33;6.47;;;;;;;;;;5119523;28;20514;-69
2023/05/10 13:52:46;;;;;;;6.37;5.70;;;;;;;;;;5117099;28;20438;-69
2023/05/10 13:55:25;;;;;;;7.80;5.90;;;;;;;;;;5111800;28;20438;-69
2023/05/10 14:00:40;;;;;;;8.77;5.03;;;;;;;;;;5117330;28;20490;-71
2023/05/10 14:03:21;;;;;;;7.00;6.10;;;;;;;;;;5129545;27;20553;-70
2023/05/10 14:06:14;;;;;;;10.07;7.40;;;;;;;;;;5106906;27;20478;-69
2023/05/10 14:08:46;;;;;;;9.00;6.53;;;;;;;;;;5098465;28;21114;-70
2023/05/10 14:11:19;;;;;;;7.23;5.00;;;;;;;;;;5096643;28;20932;-69
2023/05/10 14:19:23;;;;;;;5.40;4.47;;;;;;;;;;5093393;28;20464;-69
2023/05/10 14:24:52;;;;;;;10.97;4.67;;;;;;;;;;5089097;28;20973;-68
2023/05/10 14:27:20;;;;;;;11.27;6.80;;;;;;;;;;5092706;28;20440;-68
2023/05/10 14:29:51;;;;;;;5.93;4.07;;;;;;;;;;5092267;28;20483;-68
2023/05/10 14:32:19;;;;;;;5.10;4.30;;;;;;;;;;5095515;28;20451;-68
2023/05/10 14:34:46;;;;;;;4.80;4.23;;;;;;;;;;5092924;28;20563;-69
2023/05/10 14:40:17;;;;;;;5.20;4.27;;;;;;;;;;5073414;28;20552;-69
2023/05/10 14:42:48;;;;;;;4.43;3.70;;;;;;;;;;5078447;28;20468;-70
2023/05/10 14:45:27;;;;;;;4.20;3.50;;;;;;;;;;5074532;28;20445;-70
2023/05/10 14:48:04;;;;;;;4.40;3.37;;;;;;;;;;5076040;28;20452;-69
2023/05/10 14:50:46;;;;;;;5.10;3.67;;;;;;;;;;5075182;28;20460;-69
2023/05/10 14:53:30;;;;;;;4.60;3.57;;;;;;;;;;5085203;28;20476;-69
2023/05/10 14:56:08;;;;;;;5.33;4.33;;;;;;;;;;5085164;28;20485;-70
2023/05/10 14:58:36;;;;;;;7.20;3.60;;;;;;;;;;5072802;28;20456;-70
2023/05/10 15:01:04;;;;;;;4.93;3.70;;;;;;;;;;5075372;28;20488;-68
2023/05/10 15:03:46;;;;;;;8.63;5.17;;;;;;;;;;5073136;28;20551;-71
2023/05/10 15:06:17;;;;;;;6.90;3.80;;;;;;;;;;5074316;28;20465;-68
2023/05/10 15:08:57;;;;;;;10.93;7.53;;;;;;;;;;5072092;28;20472;-67
2023/05/10 15:11:44;;;;;;;12.53;8.70;;;;;;;;;;5073039;28;20459;-69
2023/05/10 15:14:12;;;;;;;6.97;4.43;;;;;;;;;;5058543;28;20498;-69
2023/05/10 15:16:44;;;;;;;4.63;3.40;;;;;;;;;;5092983;28;20543;-68
2023/05/10 15:19:17;;;;;;;4.30;3.30;;;;;;;;;;5078530;28;21042;-68
2023/05/10 15:22:16;;;;;;;6.20;4.23;;;;;;;;;;5089759;28;20890;-70
2023/05/10 15:24:56;;;;;;;4.63;3.73;;;;;;;;;;5091784;28;20462;-69
2023/05/10 15:27:25;;;;;;;5.83;3.90;;;;;;;;;;5075593;28;20571;-68
2023/05/10 15:30:39;;;;;;;5.93;3.50;;;;;;;;;;5075225;28;20453;-69
2023/05/10 15:33:27;;;;;;;5.00;3.67;;;;;;;;;;5075092;28;20492;-67
2023/05/10 15:35:54;;;;;;;6.33;3.57;;;;;;;;;;5074619;28;20632;-68
2023/05/10 15:38:22;;;;;;;5.50;3.70;;;;;;;;;;5087644;28;20988;-68
2023/05/10 15:40:50;;;;;;;7.03;3.80;;;;;;;;;;5095560;28;20480;-68
2023/05/10 15:43:20;;;;;;;4.80;3.00;;;;;;;;;;5085886;28;21199;-69
2023/05/10 15:45:49;;;;;;;3.80;3.03;;;;;;;;;;5092639;28;20463;-69
2023/05/10 15:48:16;;;;;;;5.03;4.30;;;;;;;;;;5092120;28;20440;-68
2023/05/10 15:50:55;;;;;;;8.37;4.20;;;;;;;;;;5091663;28;20479;-70
2023/05/10 15:55:55;;;;;;;4.83;3.13;;;;;;;;;;5090251;28;20447;-69
2023/05/10 16:02:06;;;;;;;;;;;;;;;;;;;;;
2023/05/10 16:04:46;;;;;;;5.53;3.33;;;;;;;;;;5033506;28;20449;-69
2023/05/10 16:07:22;;;;;;;9.93;5.07;;;;;;;;;;5068289;28;20449;-69
2023/05/10 16:09:54;;;;;;;6.77;4.73;;;;;;;;;;5069136;28;20448;-69
2023/05/10 16:12:27;;;;;;;10.23;6.00;;;;;;;;;;5072392;28;21005;-70
2023/05/10 16:14:55;;;;;;;6.13;3.87;;;;;;;;;;5084774;28;20428;-69
2023/05/10 16:17:23;;;;;;;5.90;4.23;;;;;;;;;;5085287;28;20458;-69
2023/05/10 16:19:54;;;;;;;4.57;3.73;;;;;;;;;;5083096;28;20941;-69